Time;durP1;ratioP1;P1;durP2;ratioP2;P2;SDS_P1;SDS_P2;PMS_P1;PMS_P2;Temp;Humidity;BMP_temperature;BMP_pressure;BME280_temperature;BME280_humidity;BME280_pressure;Samples;Min_cycle;Max_cycle;Signal;HPM_P1;HPM_P2
2022/12/27 00:02:05;;;;;;;;;;;;;;;16.10;42.10;101460.38;102175;1326;62173;-81
2022/12/27 00:04:31;;;;;;;;;;;;;;;16.10;42.18;101463.04;102146;1333;62083;-81
2022/12/27 00:06:56;;;;;;;;;;;;;;;16.10;42.13;101468.02;102120;1327;62143;-81
2022/12/27 00:09:21;;;;;;;;;;;;;;;16.11;42.12;101466.58;102141;1325;59840;-81
2022/12/27 00:11:47;;;;;;;;;;;;;;;16.10;42.15;101465.54;102096;1326;62134;-81
2022/12/27 00:14:12;;;;;;;;;;;;;;;16.09;42.19;101464.48;102125;1326;62088;-81
2022/12/27 00:16:39;;;;;;;;;;;;;;;16.10;42.15;101466.61;102126;1326;62329;-81
2022/12/27 00:19:04;;;;;;;;;;;;;;;16.09;42.20;101461.12;102118;1326;62118;-81
2022/12/27 00:21:30;;;;;;;;;;;;;;;16.09;42.08;101457.38;102000;1332;62272;-81
2022/12/27 00:23:56;;;;;;;;;;;;;;;16.09;42.17;101452.77;102012;1326;62331;-81
2022/12/27 00:26:31;;;;;;;;;;;;;;;16.09;42.18;101451.19;102133;1329;62083;-81
2022/12/27 00:28:57;;;;;;;;;;;;;;;16.08;42.07;101445.52;102021;1333;73627;-81
2022/12/27 00:31:22;;;;;;;;;;;;;;;16.08;42.10;101442.85;102091;1328;62057;-81
2022/12/27 00:33:49;;;;;;;;;;;;;;;16.08;42.11;101436.63;102142;1325;62119;-81
2022/12/27 00:36:15;;;;;;;;;;;;;;;16.08;42.17;101435.77;102099;1333;62221;-81
2022/12/27 00:38:41;;;;;;;;;;;;;;;16.08;42.17;101431.15;102083;1332;62661;-81
2022/12/27 00:41:06;;;;;;;;;;;;;;;16.07;42.07;101432.42;102086;1332;60908;-81
2022/12/27 00:43:32;;;;;;;;;;;;;;;16.07;42.11;101437.05;102055;1333;62145;-81
2022/12/27 00:45:57;;;;;;;;;;;;;;;16.07;42.16;101440.77;102083;1327;62007;-81
2022/12/27 00:48:23;;;;;;;;;;;;;;;16.07;42.11;101443.26;102054;1332;62173;-81
2022/12/27 00:50:48;;;;;;;;;;;;;;;16.07;42.12;101441.66;102156;1326;61942;-81
2022/12/27 00:53:14;;;;;;;;;;;;;;;16.07;42.14;101446.29;102015;1332;62211;-81
2022/12/27 00:55:42;;;;;;;;;;;;;;;16.07;42.17;101447.17;102117;1328;62229;-81
2022/12/27 00:58:08;;;;;;;;;;;;;;;16.06;42.14;101436.36;102020;1336;62231;-81
2022/12/27 01:00:33;;;;;;;;;;;;;;;16.06;42.18;101429.80;102009;1332;62093;-81
2022/12/27 01:02:59;;;;;;;;;;;;;;;16.06;42.12;101422.70;102082;1326;62327;-81
2022/12/27 01:05:24;;;;;;;;;;;;;;;16.06;42.17;101420.04;101982;1328;62122;-81
2022/12/27 01:07:49;;;;;;;;;;;;;;;16.06;42.10;101419.70;102060;1328;62166;-81
2022/12/27 01:10:15;;;;;;;;;;;;;;;16.05;42.09;101418.84;102083;1326;62253;-81
2022/12/27 01:12:40;;;;;;;;;;;;;;;16.05;42.07;101417.92;102150;1327;62113;-81
2022/12/27 01:15:06;;;;;;;;;;;;;;;16.05;42.17;101415.98;102117;1326;62233;-81
2022/12/27 01:17:31;;;;;;;;;;;;;;;16.05;42.09;101415.29;102138;1320;62111;-81
2022/12/27 01:19:57;;;;;;;;;;;;;;;16.05;42.13;101412.98;102165;1326;62104;-81
2022/12/27 01:22:22;;;;;;;;;;;;;;;16.05;42.07;101409.98;102123;1325;62218;-81
2022/12/27 01:24:48;;;;;;;;;;;;;;;16.05;42.12;101408.38;102105;1326;60828;-81
2022/12/27 01:27:13;;;;;;;;;;;;;;;16.04;42.06;101407.33;102136;1330;62191;-81
2022/12/27 01:29:40;;;;;;;;;;;;;;;16.04;42.13;101402.21;102158;1326;62112;-81
2022/12/27 01:32:05;;;;;;;;;;;;;;;16.04;42.08;101401.67;102065;1327;75490;-81
2022/12/27 01:34:31;;;;;;;;;;;;;;;16.04;42.11;101400.61;102121;1329;62105;-81
2022/12/27 01:36:56;;;;;;;;;;;;;;;16.04;42.11;101399.02;102155;1329;62059;-81
2022/12/27 01:39:21;;;;;;;;;;;;;;;16.03;42.11;101391.94;102088;1329;62192;-81
2022/12/27 01:44:42;;;;;;;;;;;;;;;16.03;42.02;101376.14;102173;1332;76816;-81
2022/12/27 01:47:11;;;;;;;;;;;;;;;16.03;42.05;101376.14;102143;1326;62083;-81
2022/12/27 01:49:37;;;;;;;;;;;;;;;16.03;42.08;101374.20;102160;1326;62079;-81
2022/12/27 01:52:02;;;;;;;;;;;;;;;16.03;42.02;101371.70;102167;1332;60877;-81
2022/12/27 01:54:27;;;;;;;;;;;;;;;16.03;42.09;101374.20;102153;1326;62198;-81
2022/12/27 01:56:54;;;;;;;;;;;;;;;16.03;42.10;101372.79;102117;1326;62084;-81
2022/12/27 01:59:20;;;;;;;;;;;;;;;16.02;41.97;101367.81;102125;1326;62090;-81
2022/12/27 02:01:45;;;;;;;;;;;;;;;16.02;42.00;101364.80;102056;1334;62127;-81
2022/12/27 02:04:21;;;;;;;;;;;;;;;16.02;42.05;101363.04;102181;1330;62190;-81
2022/12/27 02:06:47;;;;;;;;;;;;;;;16.02;42.02;101362.48;102074;1329;75263;-81
2022/12/27 02:09:28;;;;;;;;;;;;;;;16.02;42.11;101367.84;102089;1326;62120;-81
2022/12/27 02:11:55;;;;;;;;;;;;;;;16.01;42.04;101364.12;102109;1325;62112;-81
2022/12/27 02:14:25;;;;;;;;;;;;;;;16.01;42.04;101368.38;102089;1333;73465;-81
2022/12/27 02:16:51;;;;;;;;;;;;;;;16.01;42.04;101365.91;102144;1319;76190;-81
2022/12/27 02:19:22;;;;;;;;;;;;;;;16.01;42.06;101368.73;102059;1329;62129;-81
2022/12/27 02:22:06;;;;;;;;;;;;;;;16.01;42.08;101363.61;102131;1326;62134;-81
2022/12/27 02:24:38;;;;;;;;;;;;;;;16.01;42.05;101367.90;102139;1329;71658;-81
2022/12/27 02:27:12;;;;;;;;;;;;;;;16.01;41.98;101370.71;102127;1326;75383;-81
2022/12/27 02:29:38;;;;;;;;;;;;;;;16.01;42.05;101366.11;102180;1319;62054;-81
2022/12/27 02:32:21;;;;;;;;;;;;;;;16.01;42.01;101367.36;102130;1326;62249;-81
2022/12/27 02:34:59;;;;;;;;;;;;;;;16.01;42.01;101364.88;102084;1329;73026;-81
2022/12/27 02:37:25;;;;;;;;;;;;;;;16.00;42.08;101361.34;102148;1326;76187;-79
2022/12/27 02:39:51;;;;;;;;;;;;;;;16.00;42.04;101363.46;102076;1326;62227;-79
2022/12/27 02:53:33;;;;;;;;;;;;;;;16.00;42.02;101353.72;101953;1333;62076;-81
2022/12/27 02:59:09;;;;;;;;;;;;;;;15.99;42.07;101354.81;102060;1326;75250;-81
2022/12/27 03:05:04;;;;;;;;;;;;;;;15.99;42.05;101342.20;102157;1326;62130;-81
2022/12/27 03:07:48;;;;;;;;;;;;;;;15.99;42.02;101344.19;102025;1325;73637;-81
2022/12/27 03:16:03;;;;;;;;;;;;;;;15.98;42.05;101336.04;102176;1325;61861;-81
2022/12/27 03:18:48;;;;;;;;;;;;;;;15.98;42.05;101332.48;102187;1326;72670;-81
2022/12/27 03:26:45;;;;;;;;;;;;;;;15.98;42.00;101336.22;102175;1326;62080;-80
2022/12/27 03:34:40;;;;;;;;;;;;;;;15.97;42.02;101330.59;102203;1324;62016;-80
2022/12/27 03:40:08;;;;;;;;;;;;;;;15.97;42.03;101330.77;102244;1324;73596;-80
2022/12/27 03:46:32;;;;;;;;;;;;;;;15.96;42.02;101323.86;102205;1326;62106;-81
2022/12/27 03:48:09;;;;;;;;;;;;;;;15.96;42.06;101323.68;102197;1326;61288;-81
2022/12/27 03:50:36;;;;;;;;;;;;;;;15.97;41.99;101324.75;102158;1329;61973;-81
2022/12/27 03:53:22;;;;;;;;;;;;;;;15.96;42.03;101329.02;102142;1326;76745;-81
2022/12/27 03:55:48;;;;;;;;;;;;;;;15.96;41.99;101337.20;102104;1334;62042;-81
2022/12/27 03:58:13;;;;;;;;;;;;;;;15.96;41.95;101337.36;102171;1330;62201;-81
2022/12/27 04:00:39;;;;;;;;;;;;;;;15.96;41.98;101337.55;102149;1325;62249;-81
2022/12/27 04:03:04;;;;;;;;;;;;;;;15.95;41.97;101337.22;102173;1326;62265;-81
2022/12/27 04:05:29;;;;;;;;;;;;;;;15.96;42.02;101337.38;102243;1324;60837;-80
2022/12/27 04:35:17;;;;;;;;;;;;;;;15.92;41.99;101331.63;102157;1317;73433;-81
2022/12/27 04:37:42;;;;;;;;;;;;;;;15.93;42.02;101334.48;102108;1329;62189;-81
2022/12/27 04:56:33;;;;;;;;;;;;;;;15.91;41.88;101311.82;102163;1326;73488;-80
2022/12/27 05:04:27;;;;;;;;;;;;;;;15.91;41.92;101315.90;102143;1327;62067;-80
2022/12/27 05:06:52;;;;;;;;;;;;;;;15.91;41.91;101321.77;102096;1326;62118;-80
2022/12/27 05:14:46;;;;;;;;;;;;;;;15.90;41.87;101316.13;102184;1323;61996;-80
2022/12/27 05:17:12;;;;;;;;;;;;;;;15.90;41.93;101314.73;102248;1329;62597;-80
2022/12/27 05:19:37;;;;;;;;;;;;;;;15.89;41.95;101318.80;102107;1329;62226;-80
2022/12/27 05:27:31;;;;;;;;;;;;;;;15.89;41.93;101319.52;102173;1332;73484;-81
2022/12/27 05:29:56;;;;;;;;;;;;;;;15.89;41.86;101320.06;102134;1332;62527;-81
2022/12/27 05:32:22;;;;;;;;;;;;;;;15.89;41.94;101317.41;102194;1330;62116;-81
2022/12/27 05:34:47;;;;;;;;;;;;;;;15.89;41.90;101316.16;102174;1323;62179;-80
2022/12/27 05:37:12;;;;;;;;;;;;;;;15.89;41.94;101312.79;102211;1333;62149;-80
2022/12/27 05:39:39;;;;;;;;;;;;;;;15.89;41.87;101310.66;102153;1327;61031;-80
2022/12/27 05:42:05;;;;;;;;;;;;;;;15.88;41.81;101312.63;102152;1332;61976;-81
2022/12/27 05:44:30;;;;;;;;;;;;;;;15.89;41.88;101310.33;102182;1326;62189;-81
2022/12/27 05:46:56;;;;;;;;;;;;;;;15.88;41.89;101311.91;102151;1326;62081;-81
2022/12/27 05:49:21;;;;;;;;;;;;;;;15.88;41.79;101307.48;102103;1326;60042;-81
2022/12/27 05:51:46;;;;;;;;;;;;;;;15.88;41.90;101316.73;102175;1326;62231;-81
2022/12/27 05:54:12;;;;;;;;;;;;;;;15.88;41.83;101315.66;102149;1326;62116;-81
2022/12/27 05:56:37;;;;;;;;;;;;;;;15.88;41.93;101317.27;102224;1326;62335;-81
2022/12/27 05:59:03;;;;;;;;;;;;;;;15.87;41.89;101318.90;102217;1326;62086;-81
2022/12/27 06:01:28;;;;;;;;;;;;;;;15.88;41.84;101314.96;102168;1326;62107;-81
2022/12/27 06:03:55;;;;;;;;;;;;;;;15.87;41.90;101308.60;102168;1327;62125;-81
2022/12/27 06:06:21;;;;;;;;;;;;;;;15.87;41.85;101311.79;102065;1333;75418;-81
2022/12/27 06:08:46;;;;;;;;;;;;;;;15.87;41.93;101313.75;102047;1333;62225;-81
2022/12/27 06:11:12;;;;;;;;;;;;;;;15.87;41.80;101311.45;102137;1323;62202;-81
2022/12/27 06:13:38;;;;;;;;;;;;;;;15.87;41.88;101305.24;102073;1328;62128;-81
2022/12/27 06:16:04;;;;;;;;;;;;;;;15.87;41.87;101309.70;102122;1333;60914;-82
2022/12/27 06:18:30;;;;;;;;;;;;;;;15.87;41.83;101307.02;102267;1332;62249;-83
2022/12/27 06:21:02;;;;;;;;;;;;;;;15.87;41.81;101305.77;102130;1327;61980;-83
2022/12/27 06:23:28;;;;;;;;;;;;;;;15.87;41.88;101310.21;102109;1332;61189;-83
2022/12/27 06:25:53;;;;;;;;;;;;;;;15.87;41.89;101305.77;102063;1333;62226;-82
2022/12/27 06:28:18;;;;;;;;;;;;;;;15.87;41.82;101308.10;102130;1332;62127;-82
2022/12/27 06:30:44;;;;;;;;;;;;;;;15.87;41.87;101308.44;102181;1326;62125;-82
2022/12/27 06:33:09;;;;;;;;;;;;;;;15.88;41.84;101302.20;102258;1326;62166;-82
2022/12/27 06:35:35;;;;;;;;;;;;;;;15.87;41.86;101302.38;102175;1329;62128;-82
2022/12/27 06:38:00;;;;;;;;;;;;;;;15.88;41.88;101302.02;102181;1328;62186;-82
2022/12/27 06:40:26;;;;;;;;;;;;;;;15.88;41.82;101302.20;102101;1329;62124;-83
2022/12/27 06:42:51;;;;;;;;;;;;;;;15.88;41.79;101300.96;102109;1325;62140;-82
2022/12/27 06:45:16;;;;;;;;;;;;;;;15.88;41.91;101305.19;102156;1328;62058;-82
2022/12/27 06:47:42;;;;;;;;;;;;;;;15.88;41.87;101304.34;102138;1328;60927;-83
2022/12/27 06:50:08;;;;;;;;;;;;;;;15.88;41.81;101297.77;102132;1329;60847;-82
2022/12/27 06:52:33;;;;;;;;;;;;;;;15.88;41.82;101298.42;102146;1320;62090;-83
2022/12/27 06:54:59;;;;;;;;;;;;;;;15.89;41.81;101303.92;102281;1326;62097;-83
2022/12/27 06:57:25;;;;;;;;;;;;;;;15.89;41.82;101310.31;102237;1326;62093;-83
2022/12/27 06:59:51;;;;;;;;;;;;;;;15.89;41.85;101311.38;102215;1326;62225;-83
2022/12/27 07:02:18;;;;;;;;;;;;;;;15.89;41.82;101302.16;102158;1329;62194;-83
2022/12/27 07:04:44;;;;;;;;;;;;;;;15.89;41.83;101297.52;102133;1329;62090;-82
2022/12/27 07:07:09;;;;;;;;;;;;;;;15.89;41.85;101294.88;102226;1326;62224;-82
2022/12/27 07:09:35;;;;;;;;;;;;;;;15.89;41.83;101297.54;102189;1329;62051;-83
2022/12/27 07:12:00;;;;;;;;;;;;;;;15.88;41.83;101298.08;102242;1333;60873;-83
2022/12/27 07:14:27;;;;;;;;;;;;;;;15.89;41.83;101294.16;102113;1329;72378;-83
2022/12/27 07:16:52;;;;;;;;;;;;;;;15.89;41.82;101282.80;102243;1326;74355;-83
2022/12/27 07:19:18;;;;;;;;;;;;;;;15.89;41.88;101285.11;102153;1333;62123;-83
2022/12/27 07:21:44;;;;;;;;;;;;;;;15.89;41.82;101287.05;102168;1330;62117;-83
2022/12/27 07:24:09;;;;;;;;;;;;;;;15.89;41.88;101292.20;102254;1325;62118;-83
2022/12/27 07:26:34;;;;;;;;;;;;;;;15.89;41.81;101294.33;102267;1326;62176;-84
2022/12/27 07:29:00;;;;;;;;;;;;;;;15.89;41.84;101293.09;102199;1326;76326;-83
2022/12/27 07:31:28;;;;;;;;;;;;;;;15.89;41.83;101289.19;102249;1324;62175;-83
2022/12/27 07:33:54;;;;;;;;;;;;;;;15.89;41.83;101290.59;102141;1332;61954;-83
2022/12/27 07:36:23;;;;;;;;;;;;;;;15.88;41.90;101296.30;102149;1329;62325;-83
2022/12/27 07:38:49;;;;;;;;;;;;;;;15.89;41.88;101301.96;102205;1333;76320;-83
2022/12/27 07:41:14;;;;;;;;;;;;;;;15.89;41.83;101305.32;102150;1333;62193;-82
2022/12/27 07:43:39;;;;;;;;;;;;;;;15.89;41.87;101306.92;102169;1329;62092;-82
2022/12/27 07:46:11;;;;;;;;;;;;;;;15.90;41.89;101307.80;102119;1327;62136;-82
2022/12/27 07:48:37;;;;;;;;;;;;;;;15.89;41.90;101303.55;102208;1325;75432;-82
2022/12/27 07:51:02;;;;;;;;;;;;;;;15.90;41.88;101306.73;102168;1326;60830;-83
2022/12/27 07:53:51;;;;;;;;;;;;;;;15.90;41.85;101304.57;102138;1333;62236;-82
2022/12/27 07:56:17;;;;;;;;;;;;;;;15.90;41.96;101309.02;102040;1332;72820;-83
2022/12/27 07:58:44;;;;;;;;;;;;;;;15.90;41.88;101309.73;101961;1332;62128;-83
2022/12/27 08:01:10;;;;;;;;;;;;;;;15.90;41.93;101308.83;102000;1337;62234;-80
2022/12/27 08:03:36;;;;;;;;;;;;;;;15.90;41.83;101300.68;101984;1330;62172;-82
2022/12/27 08:06:01;;;;;;;;;;;;;;;15.91;41.94;101301.35;102023;1333;62172;-82
2022/12/27 08:08:30;;;;;;;;;;;;;;;15.90;41.88;101304.91;102068;1330;62096;-82
2022/12/27 08:10:55;;;;;;;;;;;;;;;15.90;41.93;101304.39;102014;1332;62115;-82
2022/12/27 08:13:20;;;;;;;;;;;;;;;15.90;41.86;101301.73;102035;1332;62140;-82
2022/12/27 08:15:46;;;;;;;;;;;;;;;15.91;41.88;101300.13;101999;1337;62361;-82
2022/12/27 08:18:11;;;;;;;;;;;;;;;15.90;41.91;101293.22;100339;1329;2390976;-84
2022/12/27 08:20:37;;;;;;;;;;;;;;;15.90;41.86;101301.20;102098;1329;74669;-82
2022/12/27 08:23:02;;;;;;;;;;;;;;;15.90;41.77;101298.20;102031;1337;62123;-81
2022/12/27 08:25:28;;;;;;;;;;;;;;;15.90;41.93;101293.75;102003;1336;61002;-83
2022/12/27 08:28:03;;;;;;;;;;;;;;;15.90;41.86;101296.77;102025;1330;62198;-82
2022/12/27 08:30:29;;;;;;;;;;;;;;;15.90;41.84;101292.85;101951;1328;76111;-82
2022/12/27 08:32:55;;;;;;;;;;;;;;;15.89;41.86;101285.44;101998;1329;62092;-83
2022/12/27 08:35:20;;;;;;;;;;;;;;;15.89;41.78;101282.44;102121;1333;60813;-82
2022/12/27 08:37:45;;;;;;;;;;;;;;;15.89;41.88;101281.20;102138;1329;62145;-83
2022/12/27 08:40:11;;;;;;;;;;;;;;;15.89;41.89;101272.88;102198;1328;62174;-82
2022/12/27 08:42:36;;;;;;;;;;;;;;;15.89;41.89;101270.74;102115;1332;62119;-82
2022/12/27 08:45:02;;;;;;;;;;;;;;;15.88;41.90;101270.91;102148;1328;62149;-82
2022/12/27 08:47:27;;;;;;;;;;;;;;;15.88;41.88;101268.09;102224;1326;62086;-83
2022/12/27 08:49:52;;;;;;;;;;;;;;;15.88;41.84;101261.52;102142;1332;62220;-82
2022/12/27 08:52:18;;;;;;;;;;;;;;;15.88;41.87;101257.08;102176;1333;62126;-82
2022/12/27 08:54:43;;;;;;;;;;;;;;;15.88;41.88;101253.89;102227;1324;62090;-82
2022/12/27 08:57:09;;;;;;;;;;;;;;;15.87;41.89;101243.63;102130;1328;62220;-82
2022/12/27 08:59:34;;;;;;;;;;;;;;;15.88;41.90;101243.60;102231;1326;62087;-82
2022/12/27 09:02:00;;;;;;;;;;;;;;;15.87;41.92;101226.95;102152;1329;62142;-82
2022/12/27 09:04:25;;;;;;;;;;;;;;;15.88;41.88;101220.73;102232;1326;72355;-83
2022/12/27 09:06:51;;;;;;;;;;;;;;;15.87;41.89;101219.66;102199;1325;62137;-83
2022/12/27 09:09:16;;;;;;;;;;;;;;;15.87;41.92;101210.64;102117;1332;62236;-83
2022/12/27 09:11:42;;;;;;;;;;;;;;;15.88;41.85;101209.73;102178;1323;62053;-82
2022/12/27 09:14:08;;;;;;;;;;;;;;;15.87;41.87;101209.38;102148;1328;62221;-82
2022/12/27 09:16:34;;;;;;;;;;;;;;;15.87;41.89;101211.70;102297;1326;62084;-82
2022/12/27 09:18:59;;;;;;;;;;;;;;;15.87;41.94;101207.61;102117;1328;75591;-82
2022/12/27 09:21:26;;;;;;;;;;;;;;;15.87;41.92;101206.02;102185;1325;60881;-83
2022/12/27 09:23:51;;;;;;;;;;;;;;;15.87;41.95;101200.70;102171;1325;62197;-83
2022/12/27 09:26:20;;;;;;;;;;;;;;;15.87;41.93;101195.17;102159;1329;62187;-83
2022/12/27 09:28:46;;;;;;;;;;;;;;;15.87;41.93;101190.74;102115;1329;75307;-82
2022/12/27 09:31:34;;;;;;;;;;;;;;;15.87;41.97;101185.08;102191;1330;62154;-82
2022/12/27 09:34:00;;;;;;;;;;;;;;;15.87;41.97;101179.74;102049;1334;62179;-82
2022/12/27 09:36:26;;;;;;;;;;;;;;;15.87;41.93;101184.90;101917;1331;62109;-82
2022/12/27 09:38:52;;;;;;;;;;;;;;;15.87;41.97;101182.04;101965;1337;62233;-83
2022/12/27 09:41:21;;;;;;;;;;;;;;;15.87;41.95;101184.36;101977;1339;62365;-83
2022/12/27 09:44:19;;;;;;;;;;;;;;;15.87;41.92;101177.80;102028;1330;62092;-82
2022/12/27 09:46:51;;;;;;;;;;;;;;;15.87;41.88;101173.55;101683;1343;71935;-82
2022/12/27 09:49:24;;;;;;;;;;;;;;;15.87;41.92;101168.93;101624;1344;75098;-82
2022/12/27 09:51:54;;;;;;;;;;;;;;;15.86;41.93;101157.59;101676;1343;62175;-82
2022/12/27 09:54:25;;;;;;;;;;;;;;;15.87;41.96;101144.97;101682;1336;62097;-82
2022/12/27 09:56:51;;;;;;;;;;;;;;;15.87;41.96;101143.20;101589;1340;72670;-82
2022/12/27 09:59:21;;;;;;;;;;;;;;;15.87;42.01;101142.83;101640;1336;62242;-82
2022/12/27 10:02:13;;;;;;;;;;;;;;;15.87;41.92;101143.73;101701;1339;61992;-82
2022/12/27 10:04:39;;;;;;;;;;;;;;;15.87;42.01;101147.27;101360;1341;61072;-82
2022/12/27 10:07:25;;;;;;;;;;;;;;;15.87;41.92;101141.94;101264;1347;62437;-83
2022/12/27 10:09:57;;;;;;;;;;;;;;;15.87;42.07;101143.54;101261;1347;75457;-82
2022/12/27 10:12:25;;;;;;;;;;;;;;;15.87;42.00;101139.28;101449;1339;60938;-82
2022/12/27 10:14:53;;;;;;;;;;;;;;;15.88;42.02;101140.84;101559;1338;62023;-83
2022/12/27 10:17:19;;;;;;;;;;;;;;;15.88;42.05;101133.39;101549;1336;72590;-82
2022/12/27 10:19:44;;;;;;;;;;;;;;;15.88;42.03;101121.13;101692;1342;62115;-82
2022/12/27 10:22:28;;;;;;;;;;;;;;;15.88;41.95;101112.96;101789;1329;62107;-83
2022/12/27 10:24:56;;;;;;;;;;;;;;;15.88;41.98;101101.61;102052;1329;61265;-82
2022/12/27 10:27:24;;;;;;;;;;;;;;;15.88;42.03;101100.02;101930;1337;73493;-82
2022/12/27 10:29:53;;;;;;;;;;;;;;;15.88;42.05;101095.02;101977;1329;74718;-82
2022/12/27 10:32:19;;;;;;;;;;;;;;;15.88;42.03;101098.39;101980;1336;62033;-82
2022/12/27 10:34:44;;;;;;;;;;;;;;;15.88;42.09;101098.94;101991;1332;62372;-82
2022/12/27 10:37:14;;;;;;;;;;;;;;;15.89;42.00;101096.96;101970;1332;62149;-82
2022/12/27 10:39:39;;;;;;;;;;;;;;;15.89;41.97;101096.06;101948;1336;75506;-83
2022/12/27 10:42:05;;;;;;;;;;;;;;;15.89;42.00;101096.06;102108;1332;62195;-82
2022/12/27 10:44:30;;;;;;;;;;;;;;;15.89;42.01;101095.88;102225;1326;62121;-82
2022/12/27 10:46:55;;;;;;;;;;;;;;;15.89;41.98;101091.96;102237;1328;62146;-82
2022/12/27 10:49:25;;;;;;;;;;;;;;;15.89;42.00;101086.09;102141;1326;62128;-82
2022/12/27 10:51:51;;;;;;;;;;;;;;;15.89;42.04;101077.79;102121;1329;75185;-83
2022/12/27 10:54:24;;;;;;;;;;;;;;;15.89;41.94;101082.02;102258;1324;60823;-83
2022/12/27 10:56:49;;;;;;;;;;;;;;;15.89;41.96;101080.96;102267;1333;62010;-83
2022/12/27 10:59:18;;;;;;;;;;;;;;;15.90;41.96;101078.27;102251;1326;62083;-82
2022/12/27 11:01:44;;;;;;;;;;;;;;;15.90;41.97;101077.55;102286;1329;76323;-82
2022/12/27 11:04:22;;;;;;;;;;;;;;;15.90;41.99;101077.36;102256;1320;62013;-83
2022/12/27 11:07:09;;;;;;;;;;;;;;;15.90;41.96;101083.74;102197;1326;62048;-83
2022/12/27 11:09:35;;;;;;;;;;;;;;;15.90;41.93;101095.29;102321;1326;72591;-82
2022/12/27 11:12:22;;;;;;;;;;;;;;;15.91;41.90;101104.84;102185;1326;62111;-82
2022/12/27 11:14:58;;;;;;;;;;;;;;;15.91;41.90;101108.58;102275;1332;61765;-82
2022/12/27 11:17:27;;;;;;;;;;;;;;;15.91;42.00;101105.90;102239;1330;62067;-82
2022/12/27 11:19:52;;;;;;;;;;;;;;;15.91;42.00;101109.27;102317;1333;73035;-83
2022/12/27 11:22:17;;;;;;;;;;;;;;;15.91;41.99;101111.42;102214;1330;62106;-83
2022/12/27 11:24:44;;;;;;;;;;;;;;;15.91;41.96;101109.64;102213;1329;62208;-82
2022/12/27 11:27:16;;;;;;;;;;;;;;;15.91;41.95;101109.45;102235;1326;62115;-82
2022/12/27 11:29:41;;;;;;;;;;;;;;;15.91;41.97;101103.08;102247;1332;72734;-82
2022/12/27 11:32:07;;;;;;;;;;;;;;;15.90;42.01;101095.98;102168;1320;62208;-82
2022/12/27 11:34:33;;;;;;;;;;;;;;;15.91;41.96;101097.39;102236;1325;62659;-82
2022/12/27 11:37:03;;;;;;;;;;;;;;;15.91;42.03;101093.50;102121;1332;60732;-83
2022/12/27 11:39:36;;;;;;;;;;;;;;;15.90;42.00;101090.30;102145;1335;73832;-83
2022/12/27 11:42:01;;;;;;;;;;;;;;;15.90;42.03;101100.63;102271;1333;75303;-83
2022/12/27 11:44:28;;;;;;;;;;;;;;;15.90;41.99;101105.56;102149;1333;62184;-83
2022/12/27 11:46:53;;;;;;;;;;;;;;;15.90;42.01;101108.41;102128;1323;62089;-83
2022/12/27 11:49:19;;;;;;;;;;;;;;;15.90;42.02;101108.41;102258;1330;62109;-83
2022/12/27 11:51:45;;;;;;;;;;;;;;;15.90;41.95;101112.67;102278;1330;62050;-83
2022/12/27 11:54:34;;;;;;;;;;;;;;;15.90;41.98;101114.46;102302;1330;60837;-83
2022/12/27 11:57:05;;;;;;;;;;;;;;;15.91;42.01;101110.89;102142;1329;62035;-83
2022/12/27 11:59:33;;;;;;;;;;;;;;;15.90;42.06;101113.74;102219;1332;73511;-83
2022/12/27 12:02:17;;;;;;;;;;;;;;;15.91;42.01;101120.65;102236;1326;76237;-83
2022/12/27 12:05:01;;;;;;;;;;;;;;;15.91;42.05;101117.27;102322;1332;60873;-83
2022/12/27 12:07:27;;;;;;;;;;;;;;;15.91;42.06;101117.62;102293;1333;62027;-83
2022/12/27 12:09:52;;;;;;;;;;;;;;;15.91;42.05;101112.31;102262;1313;62094;-83
2022/12/27 12:12:36;;;;;;;;;;;;;;;15.91;42.08;101117.44;102248;1325;62146;-83
2022/12/27 12:15:12;;;;;;;;;;;;;;;15.91;42.08;101125.08;102245;1326;62182;-83
2022/12/27 12:17:58;;;;;;;;;;;;;;;15.91;42.12;101124.17;102326;1329;62106;-83
2022/12/27 12:20:31;;;;;;;;;;;;;;;15.91;42.16;101120.09;102212;1333;71957;-83
2022/12/27 12:22:59;;;;;;;;;;;;;;;15.92;42.10;101119.37;102267;1329;75407;-83
2022/12/27 12:25:44;;;;;;;;;;;;;;;15.92;42.16;101118.11;102268;1332;60828;-83
2022/12/27 12:28:30;;;;;;;;;;;;;;;15.92;42.15;101121.14;102290;1323;62236;-83
2022/12/27 12:30:55;;;;;;;;;;;;;;;15.92;42.17;101120.59;102273;1332;72588;-83
2022/12/27 12:33:53;;;;;;;;;;;;;;;15.92;42.14;101125.71;102328;1329;62082;-83
2022/12/27 12:36:40;;;;;;;;;;;;;;;15.92;42.18;101131.23;102202;1324;60792;-83
2022/12/27 12:39:12;;;;;;;;;;;;;;;15.92;42.20;101135.48;102314;1333;61996;-83
2022/12/27 12:41:41;;;;;;;;;;;;;;;15.92;42.21;101143.48;102364;1330;73121;-83
2022/12/27 12:44:12;;;;;;;;;;;;;;;15.93;42.18;101151.81;102303;1333;75433;-83
2022/12/27 12:46:54;;;;;;;;;;;;;;;15.94;42.24;101150.17;102212;1329;62085;-83
2022/12/27 12:49:49;;;;;;;;;;;;;;;15.94;42.22;101150.36;102289;1326;62003;-83
2022/12/27 12:52:28;;;;;;;;;;;;;;;15.95;42.27;101152.64;101963;1323;72795;-83
2022/12/27 12:55:19;;;;;;;;;;;;;;;15.95;42.27;101151.39;101980;1330;76229;-83
2022/12/27 12:57:55;;;;;;;;;;;;;;;15.95;42.32;101153.16;101851;1332;63824;-83
2022/12/27 13:00:41;;;;;;;;;;;;;;;15.95;42.27;101158.49;101997;1337;61984;-83
2022/12/27 13:03:25;;;;;;;;;;;;;;;15.95;42.20;101164.70;102032;1338;72867;-83
2022/12/27 13:05:52;;;;;;;;;;;;;;;15.95;42.28;101163.80;101988;1335;75367;-83
2022/12/27 13:08:29;;;;;;;;;;;;;;;15.95;42.29;101167.19;101934;1339;62020;-83
2022/12/27 13:11:01;;;;;;;;;;;;;;;15.95;42.27;101171.62;101928;1337;62287;-83
2022/12/27 13:13:49;;;;;;;;;;;;;;;15.94;42.29;101175.70;101962;1335;72900;-83
2022/12/27 13:16:15;;;;;;;;;;;;;;;15.94;42.28;101181.40;101886;1336;75202;-83
2022/12/27 13:18:52;;;;;;;;;;;;;;;15.94;42.31;101182.47;102068;1330;60195;-83
2022/12/27 13:21:27;;;;;;;;;;;;;;;15.95;42.24;101183.16;102048;1336;62116;-83
2022/12/27 13:23:53;;;;;;;;;;;;;;;15.95;42.25;101183.51;101984;1330;71581;-83
2022/12/27 13:26:19;;;;;;;;;;;;;;;15.94;42.31;101194.18;102012;1330;62141;-83
2022/12/27 13:28:54;;;;;;;;;;;;;;;15.94;42.26;101204.13;102074;1334;62106;-83
2022/12/27 13:31:33;;;;;;;;;;;;;;;15.94;42.28;101202.89;102292;1326;62050;-83
2022/12/27 13:34:18;;;;;;;;;;;;;;;15.95;42.31;101204.65;102247;1332;73572;-83
2022/12/27 13:36:43;;;;;;;;;;;;;;;15.94;42.32;101205.72;102195;1327;74115;-83
2022/12/27 13:39:10;;;;;;;;;;;;;;;15.94;42.31;101211.04;102270;1329;62197;-83
2022/12/27 13:41:54;;;;;;;;;;;;;;;15.94;42.31;101219.57;102284;1329;62012;-83
2022/12/27 13:44:37;;;;;;;;;;;;;;;15.94;42.30;101221.36;102269;1332;72603;-83
2022/12/27 13:47:06;;;;;;;;;;;;;;;15.94;42.38;101220.83;102232;1332;75581;-83
2022/12/27 13:49:35;;;;;;;;;;;;;;;15.94;42.33;101218.52;102283;1329;62053;-83
2022/12/27 13:52:06;;;;;;;;;;;;;;;15.94;42.42;101212.48;102315;1329;60706;-83
2022/12/27 13:54:51;;;;;;;;;;;;;;;15.94;42.34;101220.99;102202;1332;72560;-83
2022/12/27 13:57:38;;;;;;;;;;;;;;;15.93;42.34;101221.55;102279;1326;76145;-83
2022/12/27 14:00:07;;;;;;;;;;;;;;;15.93;42.35;101221.92;102236;1332;62131;-83
2022/12/27 14:02:33;;;;;;;;;;;;;;;15.93;42.33;101229.54;102242;1326;61981;-83
2022/12/27 14:05:17;;;;;;;;;;;;;;;15.92;42.39;101227.79;102286;1326;62105;-83
2022/12/27 14:07:51;;;;;;;;;;;;;;;15.92;42.43;101229.56;102289;1326;75054;-82
2022/12/27 14:10:36;;;;;;;;;;;;;;;15.92;42.35;101228.33;102255;1326;61887;-82
2022/12/27 14:13:05;;;;;;;;;;;;;;;15.92;42.47;101227.45;102291;1323;62127;-82
2022/12/27 14:15:33;;;;;;;;;;;;;;;15.92;42.36;101233.84;102232;1330;72680;-82
2022/12/27 14:18:05;;;;;;;;;;;;;;;15.92;42.41;101237.02;102264;1329;75317;-82
2022/12/27 14:20:30;;;;;;;;;;;;;;;15.92;42.45;101241.66;102292;1317;62000;-83